Time;durP1;ratioP1;P1;durP2;ratioP2;P2;SDS_P1;SDS_P2;PMS_P1;PMS_P2;Temp;Humidity;BMP_temperature;BMP_pressure;BME280_temperature;BME280_humidity;BME280_pressure;Samples;Min_cycle;Max_cycle;Signal;HPM_P1;HPM_P2
2022/06/17 00:01:51;;;;;;;3.93;3.57;;;19.00;73.20;;;;;;4984807;28;20921;-67
2022/06/17 00:04:17;;;;;;;3.47;3.17;;;19.00;72.20;;;;;;4974751;28;20203;-66
2022/06/17 00:06:55;;;;;;;3.83;3.57;;;19.00;73.40;;;;;;4974631;28;20169;-67
2022/06/17 00:09:23;;;;;;;3.53;3.30;;;19.00;73.20;;;;;;4974951;28;20226;-65
2022/06/17 00:11:51;;;;;;;3.57;3.27;;;19.00;74.90;;;;;;4973175;28;20431;-64
2022/06/17 00:14:21;;;;;;;3.73;3.43;;;18.90;75.80;;;;;;4970677;28;20455;-65
2022/06/17 00:16:47;;;;;;;3.40;3.20;;;18.90;76.80;;;;;;4974409;28;20980;-64
2022/06/17 00:19:19;;;;;;;3.27;3.07;;;18.90;74.80;;;;;;4974429;28;20439;-64
2022/06/17 00:21:48;;;;;;;3.50;3.20;;;18.70;76.30;;;;;;4974427;28;20902;-65
2022/06/17 00:24:24;;;;;;;5.23;3.07;;;18.70;75.60;;;;;;4974215;28;20451;-65
2022/06/17 00:26:51;;;;;;;3.57;3.37;;;18.60;77.20;;;;;;4974487;28;20563;-64
2022/06/17 00:29:20;;;;;;;3.80;3.50;;;18.50;76.80;;;;;;4974156;28;20423;-66
2022/06/17 00:31:45;;;;;;;4.20;3.80;;;18.50;78.50;;;;;;4974076;28;20431;-65
2022/06/17 00:34:11;;;;;;;3.77;3.57;;;18.40;80.50;;;;;;4974267;28;20450;-65
2022/06/17 00:36:37;;;;;;;3.30;3.03;;;18.50;80.50;;;;;;4974695;28;20200;-65
2022/06/17 00:39:14;;;;;;;3.40;3.10;;;18.50;80.60;;;;;;4974040;28;20607;-65
2022/06/17 00:41:42;;;;;;;3.63;3.33;;;18.60;80.90;;;;;;4974682;28;20180;-64
2022/06/17 00:44:27;;;;;;;3.60;3.30;;;18.50;82.90;;;;;;4973753;28;20465;-65
2022/06/17 00:47:23;;;;;;;3.20;3.00;;;18.50;80.80;;;;;;4974070;28;20443;-65
2022/06/17 00:50:22;;;;;;;3.40;3.20;;;18.60;81.60;;;;;;4972068;28;20976;-66
2022/06/17 00:52:50;;;;;;;3.73;3.43;;;18.50;81.70;;;;;;4967823;28;20503;-64
2022/06/17 00:55:26;;;;;;;3.33;3.13;;;18.50;83.20;;;;;;4974121;28;20430;-64
2022/06/17 00:57:51;;;;;;;3.23;2.87;;;18.40;84.00;;;;;;4973955;28;20467;-65
2022/06/17 01:00:20;;;;;;;3.40;3.20;;;18.40;85.20;;;;;;4974010;28;20455;-64
2022/06/17 01:02:53;;;;;;;3.60;3.30;;;18.30;85.30;;;;;;4973674;28;20176;-65
2022/06/17 01:05:22;;;;;;;3.93;3.63;;;18.30;86.20;;;;;;4973769;28;20828;-65
2022/06/17 01:08:02;;;;;;;5.10;3.40;;;18.30;88.20;;;;;;4971955;28;20558;-65
2022/06/17 01:10:29;;;;;;;3.60;3.40;;;18.30;86.20;;;;;;4973263;28;20454;-64
2022/06/17 01:13:06;;;;;;;3.90;3.60;;;18.30;87.40;;;;;;4972915;28;20463;-66
2022/06/17 01:15:34;;;;;;;3.40;3.20;;;18.20;88.90;;;;;;4971563;28;20474;-65
2022/06/17 01:18:01;;;;;;;3.80;3.60;;;18.20;89.40;;;;;;4973535;28;20458;-64
2022/06/17 01:20:30;;;;;;;3.47;3.27;;;18.20;89.50;;;;;;4973212;28;20443;-65
2022/06/17 01:22:59;;;;;;;4.27;3.97;;;18.10;90.40;;;;;;4973268;28;21016;-65
2022/06/17 01:25:29;;;;;;;3.70;3.43;;;18.00;91.30;;;;;;4973367;28;20681;-65
2022/06/17 01:28:06;;;;;;;4.40;2.93;;;17.90;93.40;;;;;;4973021;28;20502;-64
2022/06/17 01:30:36;;;;;;;3.93;3.70;;;17.80;94.00;;;;;;4973046;28;20498;-65
2022/06/17 01:33:07;;;;;;;3.40;3.20;;;17.80;94.90;;;;;;4972997;28;20985;-64
2022/06/17 01:35:45;;;;;;;4.20;4.00;;;17.70;96.30;;;;;;4971651;28;20423;-65
2022/06/17 01:38:12;;;;;;;3.37;3.17;;;17.60;97.30;;;;;;4972806;28;20432;-66
2022/06/17 01:40:37;;;;;;;4.70;4.40;;;17.50;99.30;;;;;;4972924;28;20431;-65
2022/06/17 01:43:08;;;;;;;3.60;3.30;;;17.50;99.50;;;;;;4973230;28;20454;-66
2022/06/17 01:45:37;;;;;;;4.73;4.33;;;17.50;99.30;;;;;;4973005;28;20193;-65
2022/06/17 01:48:04;;;;;;;3.83;3.53;;;17.50;99.60;;;;;;4973049;28;20420;-65
2022/06/17 01:50:31;;;;;;;4.47;4.07;;;17.50;99.70;;;;;;4972637;28;20824;-66
2022/06/17 01:53:03;;;;;;;3.50;3.20;;;17.50;96.50;;;;;;4972400;28;20999;-64
2022/06/17 01:55:37;;;;;;;4.20;3.90;;;17.50;97.10;;;;;;4972918;28;20431;-64
2022/06/17 01:58:16;;;;;;;4.37;3.97;;;17.50;97.70;;;;;;4972871;28;20451;-65
2022/06/17 02:00:42;;;;;;;3.90;3.60;;;17.50;95.80;;;;;;4971932;28;20433;-64
2022/06/17 02:03:14;;;;;;;3.80;3.60;;;17.60;96.00;;;;;;4972495;28;20448;-64
2022/06/17 02:05:44;;;;;;;8.07;3.60;;;17.60;96.40;;;;;;4972512;28;20912;-64
2022/06/17 02:08:10;;;;;;;3.70;3.50;;;17.50;96.20;;;;;;4972439;28;20848;-64
2022/06/17 02:10:40;;;;;;;4.00;3.70;;;17.50;97.20;;;;;;4972600;28;20431;-65
2022/06/17 02:13:07;;;;;;;3.87;3.57;;;17.40;98.00;;;;;;4970920;28;20199;-66
2022/06/17 02:15:34;;;;;;;4.33;3.27;;;17.40;98.20;;;;;;4972479;28;20486;-65
2022/06/17 02:18:01;;;;;;;4.10;3.70;;;17.40;97.90;;;;;;4972216;28;20431;-64
2022/06/17 02:20:27;;;;;;;4.70;3.80;;;17.40;99.10;;;;;;4972009;28;20440;-65
2022/06/17 02:22:55;;;;;;;4.07;3.87;;;17.40;99.50;;;;;;4972283;28;20431;-65
2022/06/17 02:25:25;;;;;;;4.30;4.00;;;17.40;99.60;;;;;;4972273;28;20467;-65
2022/06/17 02:27:55;;;;;;;4.20;3.63;;;17.30;99.90;;;;;;4972294;28;20423;-65
2022/06/17 02:30:21;;;;;;;9.13;4.60;;;17.20;99.70;;;;;;4970478;28;21036;-64
2022/06/17 02:32:48;;;;;;;3.67;3.40;;;17.20;99.90;;;;;;4972076;28;20530;-64
2022/06/17 02:35:52;;;;;;;4.43;4.03;;;17.10;99.90;;;;;;4972114;28;20428;-66
2022/06/17 02:38:20;;;;;;;4.57;4.17;;;17.10;99.90;;;;;;4970057;28;20435;-64
2022/06/17 02:40:53;;;;;;;3.90;3.50;;;17.00;99.90;;;;;;4972518;28;20423;-64
2022/06/17 02:43:23;;;;;;;3.57;3.30;;;17.00;99.90;;;;;;4971973;28;20443;-65
2022/06/17 02:45:53;;;;;;;3.93;3.73;;;17.00;99.90;;;;;;4972101;28;21005;-64
2022/06/17 02:48:32;;;;;;;4.10;3.80;;;17.00;99.90;;;;;;4969633;28;20424;-64
2022/06/17 02:51:00;;;;;;;5.47;3.50;;;17.00;99.90;;;;;;4971556;28;20523;-65
2022/06/17 02:53:38;;;;;;;3.43;3.13;;;17.00;99.90;;;;;;4971235;28;20467;-64
2022/06/17 02:56:07;;;;;;;5.27;4.63;;;17.00;99.90;;;;;;4969932;28;20427;-65
2022/06/17 02:58:39;;;;;;;4.93;4.57;;;17.00;99.90;;;;;;4969475;28;20459;-64
2022/06/17 03:01:14;;;;;;;5.63;3.60;;;16.90;99.90;;;;;;4969978;28;20424;-65
2022/06/17 03:03:40;;;;;;;4.03;3.73;;;16.70;99.90;;;;;;4971330;28;21103;-64
2022/06/17 03:06:11;;;;;;;3.93;3.73;;;16.70;99.90;;;;;;4971392;28;20423;-65
2022/06/17 03:08:39;;;;;;;3.60;3.40;;;16.50;99.90;;;;;;4969936;28;20586;-65
2022/06/17 03:11:07;;;;;;;4.73;4.17;;;16.50;99.90;;;;;;4971377;28;20423;-65
2022/06/17 03:13:41;;;;;;;6.47;3.70;;;16.50;99.90;;;;;;4971213;28;20795;-65
2022/06/17 03:16:11;;;;;;;3.90;3.70;;;16.50;99.90;;;;;;4971434;28;20846;-65
2022/06/17 03:18:37;;;;;;;3.90;3.70;;;16.50;99.90;;;;;;4969703;28;20420;-64
2022/06/17 03:21:05;;;;;;;4.23;3.93;;;16.50;99.90;;;;;;4971270;28;20816;-65
2022/06/17 03:23:56;;;;;;;4.10;3.80;;;16.60;99.90;;;;;;4971074;28;20238;-65
2022/06/17 03:26:28;;;;;;;4.80;4.33;;;16.50;99.90;;;;;;4969789;28;20435;-66
2022/06/17 03:28:56;;;;;;;4.53;4.13;;;16.50;99.90;;;;;;4970147;28;20538;-66
2022/06/17 03:31:36;;;;;;;4.23;3.93;;;16.50;99.90;;;;;;4971204;28;20470;-67
2022/06/17 03:34:10;;;;;;;5.70;4.23;;;16.50;99.90;;;;;;4971179;28;20455;-64
2022/06/17 03:36:54;;;;;;;4.60;4.20;;;16.50;99.90;;;;;;4973712;28;20871;-64
2022/06/17 03:39:33;;;;;;;5.10;4.60;;;16.50;99.90;;;;;;4974635;28;20486;-65
2022/06/17 03:42:08;;;;;;;4.73;4.20;;;16.30;99.90;;;;;;4974830;28;20891;-64
2022/06/17 03:44:41;;;;;;;5.13;4.63;;;16.30;99.90;;;;;;4974792;28;20473;-66
2022/06/17 03:47:42;;;;;;;4.27;3.97;;;16.30;99.90;;;;;;4973535;28;20423;-65
2022/06/17 03:50:26;;;;;;;6.23;4.27;;;16.40;99.90;;;;;;4932350;29;20473;-66
2022/06/17 03:52:57;;;;;;;4.50;4.20;;;16.60;99.90;;;;;;4969763;28;20818;-64
2022/06/17 03:55:23;;;;;;;4.00;3.70;;;16.60;99.90;;;;;;4974038;28;20427;-66
2022/06/17 03:57:54;;;;;;;3.87;3.57;;;16.70;99.90;;;;;;4974644;28;20435;-66
2022/06/17 04:00:45;;;;;;;4.80;4.40;;;16.70;99.90;;;;;;4974874;28;20844;-66
2022/06/17 04:03:15;;;;;;;5.17;4.07;;;16.70;99.90;;;;;;4974384;28;21040;-67
2022/06/17 04:05:42;;;;;;;4.37;4.07;;;16.60;99.90;;;;;;4974496;28;20473;-66
2022/06/17 04:08:10;;;;;;;4.73;4.33;;;16.70;99.90;;;;;;4974602;28;20450;-66
2022/06/17 04:10:36;;;;;;;4.63;4.20;;;16.90;99.90;;;;;;4975018;28;20428;-67
2022/06/17 04:13:02;;;;;;;4.77;3.90;;;16.90;99.90;;;;;;4974688;28;20459;-66
2022/06/17 04:15:55;;;;;;;4.60;4.20;;;16.90;99.90;;;;;;4974647;28;20446;-66
2022/06/17 04:18:20;;;;;;;3.83;3.53;;;17.10;99.90;;;;;;4972823;28;20543;-67
2022/06/17 04:20:49;;;;;;;4.43;4.13;;;17.10;99.90;;;;;;4974464;28;20446;-66
2022/06/17 04:23:21;;;;;;;4.20;3.90;;;17.20;99.90;;;;;;4974265;28;20666;-65
2022/06/17 04:25:50;;;;;;;3.97;3.70;;;17.20;99.90;;;;;;4974342;28;20459;-66
2022/06/17 04:28:21;;;;;;;3.93;3.63;;;17.20;99.90;;;;;;4974053;28;20436;-66
2022/06/17 04:30:52;;;;;;;4.07;3.77;;;17.20;99.90;;;;;;4974257;28;20507;-66
2022/06/17 04:33:44;;;;;;;4.30;4.00;;;17.30;99.90;;;;;;4973918;28;20461;-67
2022/06/17 04:36:33;;;;;;;4.03;3.63;;;17.20;99.90;;;;;;4974109;28;20483;-66
2022/06/17 04:39:36;;;;;;;5.40;4.87;;;17.20;99.90;;;;;;4973799;28;20521;-67
2022/06/17 04:42:07;;;;;;;5.07;4.63;;;17.20;99.90;;;;;;4974108;28;20431;-67
2022/06/17 04:44:32;;;;;;;5.17;4.73;;;17.30;99.90;;;;;;4973883;28;20479;-67
2022/06/17 04:47:15;;;;;;;5.40;4.77;;;17.30;99.90;;;;;;4972851;28;20941;-67
2022/06/17 04:49:54;;;;;;;5.90;5.33;;;17.40;99.90;;;;;;4972778;28;20608;-67
2022/06/17 04:52:34;;;;;;;5.37;4.87;;;17.50;99.90;;;;;;4973922;28;20451;-67
2022/06/17 04:55:03;;;;;;;5.70;5.30;;;17.60;99.90;;;;;;4973832;28;20558;-66
2022/06/17 04:57:30;;;;;;;5.17;4.87;;;17.70;99.90;;;;;;4973794;28;20531;-67
2022/06/17 04:59:58;;;;;;;5.50;5.03;;;17.70;99.90;;;;;;4973407;28;20542;-66
2022/06/17 05:02:28;;;;;;;5.77;5.27;;;17.80;99.90;;;;;;4973650;28;20432;-66
2022/06/17 05:04:59;;;;;;;4.70;4.30;;;17.80;99.90;;;;;;4973660;28;20565;-67
2022/06/17 05:07:31;;;;;;;5.13;4.30;;;17.80;99.90;;;;;;4973472;28;20431;-66
2022/06/17 05:10:01;;;;;;;4.53;4.13;;;17.90;99.90;;;;;;4973342;28;20470;-66
2022/06/17 05:12:56;;;;;;;4.13;3.83;;;18.20;99.90;;;;;;4973484;28;20510;-66
2022/06/17 05:15:22;;;;;;;6.30;4.60;;;18.40;99.90;;;;;;4969784;28;20440;-66
2022/06/17 05:17:48;;;;;;;5.07;4.67;;;18.70;99.90;;;;;;4973389;28;20446;-67
2022/06/17 05:20:21;;;;;;;5.23;4.57;;;18.80;99.90;;;;;;4973110;28;20526;-66
2022/06/17 05:23:03;;;;;;;7.10;6.37;;;19.10;99.90;;;;;;4973294;28;20423;-67
2022/06/17 05:25:35;;;;;;;6.07;4.50;;;19.30;99.90;;;;;;4973195;28;20497;-67
2022/06/17 05:28:01;;;;;;;4.70;3.13;;;19.50;99.90;;;;;;4973554;28;20424;-66
2022/06/17 05:30:31;;;;;;;4.80;3.83;;;19.80;99.90;;;;;;4973008;28;20455;-66
2022/06/17 05:32:56;;;;;;;4.37;3.97;;;19.90;99.90;;;;;;4973088;28;20876;-66
2022/06/17 05:35:23;;;;;;;3.83;3.40;;;20.20;99.90;;;;;;4973249;28;20423;-67
2022/06/17 05:37:49;;;;;;;4.47;3.63;;;20.30;99.90;;;;;;4973135;28;20180;-67
2022/06/17 05:40:15;;;;;;;4.23;3.70;;;20.40;99.90;;;;;;4972823;28;20499;-67
2022/06/17 05:42:43;;;;;;;4.50;4.10;;;20.40;99.90;;;;;;4973176;28;20467;-67
2022/06/17 05:45:15;;;;;;;5.27;3.70;;;20.40;99.90;;;;;;4973040;28;20196;-67
2022/06/17 05:47:41;;;;;;;4.70;4.20;;;20.50;99.90;;;;;;4973098;28;20494;-67
2022/06/17 05:50:08;;;;;;;4.07;3.80;;;20.70;99.90;;;;;;4972888;28;20428;-67
2022/06/17 05:52:34;;;;;;;3.30;3.10;;;20.80;99.90;;;;;;4972952;28;20427;-67
2022/06/17 05:55:03;;;;;;;5.93;3.40;;;20.70;99.90;;;;;;4972828;28;20538;-67
2022/06/17 05:57:28;;;;;;;6.73;4.40;;;20.90;99.90;;;;;;4972633;28;20524;-68
2022/06/17 05:59:54;;;;;;;4.40;3.90;;;21.00;99.90;;;;;;4972520;28;20475;-67
2022/06/17 06:02:19;;;;;;;4.10;3.80;;;21.30;99.90;;;;;;4972834;28;20184;-67
2022/06/17 06:04:45;;;;;;;5.13;4.73;;;21.50;99.80;;;;;;4972427;28;20655;-66
2022/06/17 06:07:10;;;;;;;4.30;3.30;;;21.50;99.80;;;;;;4972478;28;20176;-67
2022/06/17 06:09:36;;;;;;;4.10;3.60;;;21.70;99.50;;;;;;4972177;28;20168;-67
2022/06/17 06:12:01;;;;;;;4.80;3.13;;;21.80;99.20;;;;;;4972427;28;20165;-67
2022/06/17 06:14:27;;;;;;;4.30;4.00;;;22.00;98.70;;;;;;4972362;28;20204;-67
2022/06/17 06:16:52;;;;;;;5.40;3.80;;;22.00;98.20;;;;;;4972334;28;20188;-67
2022/06/17 06:19:18;;;;;;;4.63;4.23;;;22.10;98.20;;;;;;4972183;28;20571;-67
2022/06/17 06:21:43;;;;;;;4.47;4.07;;;22.30;97.10;;;;;;4972265;28;20292;-67
2022/06/17 06:24:09;;;;;;;4.03;3.60;;;22.30;97.20;;;;;;4972273;28;20204;-66
2022/06/17 06:26:34;;;;;;;4.10;3.40;;;22.50;97.10;;;;;;4972527;28;20259;-67
2022/06/17 06:29:00;;;;;;;4.30;3.83;;;22.70;96.60;;;;;;4972335;28;20774;-67
2022/06/17 06:31:29;;;;;;;4.00;3.70;;;22.90;96.10;;;;;;4972396;28;20227;-66
2022/06/17 06:33:55;;;;;;;4.80;4.40;;;23.20;95.40;;;;;;4972268;28;20207;-67
2022/06/17 06:36:21;;;;;;;7.60;4.37;;;23.30;94.50;;;;;;4972180;28;20929;-67
2022/06/17 06:38:47;;;;;;;4.10;3.63;;;23.20;94.80;;;;;;4972243;28;20440;-67
2022/06/17 06:41:13;;;;;;;4.23;3.93;;;23.10;94.50;;;;;;4972367;28;20651;-67
2022/06/17 06:43:39;;;;;;;5.77;3.97;;;23.10;94.90;;;;;;4972282;28;20453;-67
2022/06/17 06:46:08;;;;;;;4.13;3.87;;;23.40;94.40;;;;;;4972168;28;20464;-67
2022/06/17 06:48:33;;;;;;;4.37;3.97;;;23.60;94.40;;;;;;4971905;28;20459;-67
2022/06/17 06:50:59;;;;;;;4.93;3.77;;;23.80;93.40;;;;;;4971933;28;20463;-67
2022/06/17 06:53:24;;;;;;;11.27;10.17;;;23.70;93.70;;;;;;4971844;28;20353;-68
2022/06/17 06:55:50;;;;;;;5.10;4.27;;;23.90;93.20;;;;;;4972099;28;20588;-67
2022/06/17 06:58:19;;;;;;;5.53;5.03;;;23.40;93.50;;;;;;4971697;28;20203;-67
2022/06/17 07:00:48;;;;;;;4.87;4.30;;;23.30;93.80;;;;;;4972061;28;20259;-67
2022/06/17 07:03:15;;;;;;;6.03;3.90;;;23.30;93.60;;;;;;4971774;28;20461;-68
2022/06/17 07:05:44;;;;;;;4.50;4.20;;;23.50;93.70;;;;;;4971690;28;20460;-67
2022/06/17 07:08:11;;;;;;;4.53;4.23;;;23.50;93.60;;;;;;4971455;28;20490;-65
2022/06/17 07:10:38;;;;;;;4.33;4.03;;;23.80;93.50;;;;;;4971143;28;20428;-67
2022/06/17 07:13:06;;;;;;;4.33;4.03;;;24.00;93.10;;;;;;4971872;28;20444;-67
2022/06/17 07:15:32;;;;;;;4.87;3.63;;;24.20;92.80;;;;;;4971647;28;20459;-67
2022/06/17 07:18:12;;;;;;;4.40;4.10;;;24.40;92.60;;;;;;4971250;28;20515;-67
2022/06/17 07:20:42;;;;;;;3.77;3.47;;;24.70;92.50;;;;;;4970083;28;20463;-67
2022/06/17 07:23:13;;;;;;;3.90;3.60;;;25.00;92.00;;;;;;4971537;28;20758;-68
2022/06/17 07:25:39;;;;;;;4.40;4.10;;;25.40;91.70;;;;;;4971594;28;20550;-66
2022/06/17 07:28:06;;;;;;;4.73;4.33;;;25.40;91.40;;;;;;4971470;28;21007;-67
2022/06/17 07:30:33;;;;;;;3.40;3.20;;;25.60;90.80;;;;;;4971189;28;20860;-68
2022/06/17 07:32:59;;;;;;;6.53;3.63;;;25.70;91.10;;;;;;4971387;28;20789;-67
2022/06/17 07:35:25;;;;;;;4.37;3.70;;;25.70;90.70;;;;;;4971443;28;20439;-68
2022/06/17 07:40:35;;;;;;;4.83;4.43;;;26.10;90.10;;;;;;4969561;28;20435;-67
2022/06/17 07:43:01;;;;;;;5.40;4.50;;;25.90;89.90;;;;;;4971197;28;20440;-67
2022/06/17 07:45:28;;;;;;;5.43;3.90;;;25.90;90.00;;;;;;4971211;28;20207;-68
2022/06/17 07:47:56;;;;;;;3.80;3.50;;;26.00;90.00;;;;;;4970639;28;20449;-66
2022/06/17 07:50:31;;;;;;;3.80;3.50;;;25.90;90.50;;;;;;4971076;28;20470;-68
2022/06/17 07:52:56;;;;;;;4.13;3.80;;;26.30;89.80;;;;;;4971015;28;20960;-66
2022/06/17 07:55:22;;;;;;;5.40;3.97;;;26.70;88.60;;;;;;4971316;28;20784;-67
2022/06/17 07:57:49;;;;;;;4.23;3.93;;;26.80;88.40;;;;;;4971189;28;20643;-67
2022/06/17 08:00:19;;;;;;;4.40;3.97;;;26.80;87.00;;;;;;4970787;28;20195;-67
2022/06/17 08:02:45;;;;;;;4.57;4.17;;;26.80;87.10;;;;;;4971007;28;20472;-67
2022/06/17 08:05:10;;;;;;;5.50;4.10;;;26.00;88.30;;;;;;4971277;28;20463;-67
2022/06/17 08:07:36;;;;;;;4.67;4.27;;;26.50;88.20;;;;;;4971043;28;20172;-67
2022/06/17 08:10:02;;;;;;;5.07;4.33;;;26.90;86.70;;;;;;4970721;28;20309;-67
2022/06/17 08:12:28;;;;;;;4.40;3.80;;;26.90;86.80;;;;;;4971010;28;20176;-67
2022/06/17 08:14:56;;;;;;;4.70;4.40;;;27.00;86.50;;;;;;4971120;28;20451;-68
2022/06/17 08:17:22;;;;;;;4.40;3.90;;;27.30;85.70;;;;;;4971001;28;20183;-67
2022/06/17 08:19:51;;;;;;;4.53;3.67;;;27.30;85.60;;;;;;4970662;28;20467;-68
2022/06/17 08:22:18;;;;;;;3.63;3.33;;;27.70;84.00;;;;;;4974338;28;20439;-67
2022/06/17 08:24:43;;;;;;;6.57;3.60;;;28.10;81.60;;;;;;4974109;28;20463;-66
2022/06/17 08:27:09;;;;;;;4.27;3.87;;;28.30;80.00;;;;;;4974429;28;20419;-66
2022/06/17 08:29:34;;;;;;;3.80;3.50;;;28.40;79.50;;;;;;4974256;28;20172;-67
2022/06/17 08:32:45;;;;;;;4.37;3.97;;;28.70;78.20;;;;;;4974340;28;20176;-67
2022/06/17 08:34:46;;;;;;;3.53;3.33;;;28.90;76.80;;;;;;4973672;28;20287;-67
2022/06/17 08:37:13;;;;;;;4.57;3.60;;;28.90;75.60;;;;;;4974133;28;20952;-68
2022/06/17 08:39:39;;;;;;;3.23;2.93;;;29.20;76.10;;;;;;4974010;28;20476;-67
2022/06/17 08:42:50;;;;;;;3.63;3.37;;;29.60;75.80;;;;;;4974601;28;20424;-68
2022/06/17 08:46:07;;;;;;;4.40;4.00;;;29.90;73.40;;;;;;4933103;29;20465;-67
2022/06/17 08:49:04;;;;;;;3.90;3.30;;;28.60;74.60;;;;;;4887568;29;20488;-68
2022/06/17 08:51:50;;;;;;;4.63;3.40;;;29.20;73.00;;;;;;4973983;28;20482;-67
2022/06/17 08:54:41;;;;;;;3.87;3.57;;;29.30;72.50;;;;;;4973731;28;20554;-67
2022/06/17 08:57:28;;;;;;;6.67;4.20;;;29.50;73.60;;;;;;4974186;28;20451;-68
2022/06/17 09:00:20;;;;;;;3.60;3.40;;;29.50;72.90;;;;;;4972226;28;20439;-67
2022/06/17 09:02:45;;;;;;;5.50;3.70;;;29.80;71.80;;;;;;4973218;28;20431;-68
2022/06/17 09:05:13;;;;;;;10.37;4.33;;;29.90;72.40;;;;;;4973670;28;20977;-67
2022/06/17 09:08:07;;;;;;;6.43;4.10;;;29.70;72.60;;;;;;4973574;28;20460;-67
2022/06/17 09:10:35;;;;;;;4.00;3.70;;;29.20;72.10;;;;;;4973249;28;21013;-68
2022/06/17 09:13:27;;;;;;;3.90;3.50;;;29.20;72.80;;;;;;4973517;28;20524;-67
2022/06/17 09:16:02;;;;;;;4.07;3.77;;;29.40;70.90;;;;;;4949076;28;20432;-67
2022/06/17 09:18:34;;;;;;;4.43;4.03;;;29.80;70.00;;;;;;4973161;28;20940;-67
2022/06/17 09:21:14;;;;;;;4.07;3.87;;;30.00;70.00;;;;;;4973277;28;20478;-67
2022/06/17 09:23:40;;;;;;;5.47;3.43;;;29.90;70.20;;;;;;4973225;28;20809;-68
2022/06/17 09:26:14;;;;;;;4.10;3.80;;;30.10;68.80;;;;;;4973532;28;20474;-67
2022/06/17 09:28:51;;;;;;;4.53;4.00;;;30.50;67.50;;;;;;4973058;28;20550;-68
2022/06/17 09:31:22;;;;;;;4.90;3.80;;;31.00;67.50;;;;;;4973306;28;20763;-67
2022/06/17 09:34:22;;;;;;;4.20;3.77;;;30.80;68.30;;;;;;4972500;28;20455;-67
2022/06/17 09:37:05;;;;;;;4.90;3.33;;;30.70;68.10;;;;;;4973006;28;20960;-66
2022/06/17 09:39:48;;;;;;;7.00;3.77;;;29.40;69.00;;;;;;4972797;28;20840;-67
2022/06/17 09:42:22;;;;;;;3.63;3.43;;;29.60;66.50;;;;;;4973210;28;20471;-66
2022/06/17 09:45:27;;;;;;;4.80;3.27;;;29.90;66.40;;;;;;4972822;28;20512;-66
2022/06/17 09:48:04;;;;;;;4.40;3.83;;;30.00;65.50;;;;;;4969160;28;20864;-67
2022/06/17 09:50:38;;;;;;;4.00;3.70;;;30.50;63.30;;;;;;4972980;28;20446;-67
2022/06/17 09:53:13;;;;;;;3.93;3.53;;;31.30;62.30;;;;;;4970791;28;20463;-68
2022/06/17 09:55:57;;;;;;;3.93;3.63;;;32.00;60.20;;;;;;4973461;28;20435;-66
2022/06/17 09:58:45;;;;;;;3.77;3.40;;;31.80;59.90;;;;;;4971076;28;20857;-68
2022/06/17 10:01:12;;;;;;;3.80;3.50;;;32.20;60.80;;;;;;4972894;28;20439;-68
2022/06/17 10:03:38;;;;;;;3.93;3.63;;;32.80;58.40;;;;;;4972860;28;21028;-68
2022/06/17 10:06:28;;;;;;;5.60;4.13;;;33.20;58.00;;;;;;4972874;28;20459;-67
2022/06/17 10:09:10;;;;;;;4.27;3.87;;;33.60;56.60;;;;;;4970971;28;20434;-68
2022/06/17 10:11:54;;;;;;;5.17;4.40;;;34.50;55.50;;;;;;4972679;28;20838;-68
2022/06/17 10:14:50;;;;;;;5.13;4.70;;;34.40;56.30;;;;;;4972547;28;20542;-68
2022/06/17 10:21:06;;;;;;;3.93;3.63;;;34.00;57.00;;;;;;4970442;28;20506;-68
2022/06/17 10:23:58;;;;;;;4.47;4.07;;;34.10;57.20;;;;;;4972266;28;20451;-67
2022/06/17 10:26:35;;;;;;;4.63;4.07;;;33.60;56.30;;;;;;4972519;28;20428;-67
2022/06/17 10:29:03;;;;;;;4.73;4.43;;;33.30;56.30;;;;;;4971637;28;20783;-68
2022/06/17 10:31:34;;;;;;;4.20;3.90;;;33.30;57.00;;;;;;4972206;28;20485;-67
2022/06/17 10:34:05;;;;;;;5.50;5.00;;;34.80;55.90;;;;;;4972062;28;20518;-68
2022/06/17 10:36:31;;;;;;;4.13;3.83;;;35.90;53.80;;;;;;4972253;28;20502;-67
2022/06/17 10:39:01;;;;;;;3.63;3.33;;;36.30;53.30;;;;;;4971941;28;20960;-68
2022/06/17 10:41:27;;;;;;;5.77;3.83;;;37.00;52.20;;;;;;4972237;28;20446;-67
2022/06/17 10:43:53;;;;;;;5.10;4.03;;;37.40;51.80;;;;;;4971104;28;20444;-68
2022/06/17 10:46:23;;;;;;;6.13;3.80;;;38.30;48.30;;;;;;4971901;28;20420;-67
2022/06/17 10:48:55;;;;;;;3.13;2.93;;;38.80;47.60;;;;;;4971792;28;20846;-68
2022/06/17 10:51:21;;;;;;;4.83;4.10;;;40.40;41.60;;;;;;4971995;28;20424;-68
2022/06/17 10:53:58;;;;;;;4.47;3.67;;;40.30;42.10;;;;;;4971763;28;20981;-68
2022/06/17 10:56:39;;;;;;;4.40;4.13;;;41.00;41.70;;;;;;4972189;28;20168;-68
2022/06/17 10:59:08;;;;;;;7.17;4.23;;;41.60;39.40;;;;;;4969854;28;20435;-68
2022/06/17 11:01:46;;;;;;;4.10;3.80;;;41.40;38.90;;;;;;4971811;28;20472;-69
2022/06/17 11:04:18;;;;;;;3.47;3.20;;;41.50;38.10;;;;;;4971630;28;20548;-68
2022/06/17 11:07:06;;;;;;;3.23;2.93;;;41.70;36.90;;;;;;4971809;28;20519;-68
2022/06/17 11:09:37;;;;;;;3.37;3.07;;;42.70;36.00;;;;;;4970146;28;20470;-68
2022/06/17 11:12:14;;;;;;;4.30;3.67;;;43.10;35.10;;;;;;4971695;28;20423;-69
2022/06/17 11:14:39;;;;;;;3.80;3.60;;;43.60;33.90;;;;;;4972890;28;20442;-69
2022/06/17 11:17:31;;;;;;;3.17;2.90;;;43.40;33.00;;;;;;4973015;28;20584;-69
2022/06/17 11:20:02;;;;;;;3.50;2.97;;;43.00;32.50;;;;;;4972884;28;20660;-68
2022/06/17 11:22:39;;;;;;;2.97;2.77;;;42.00;32.20;;;;;;4966912;28;20431;-69
2022/06/17 11:25:22;;;;;;;3.53;3.33;;;42.30;32.90;;;;;;4972935;28;20466;-68
2022/06/17 11:28:07;;;;;;;2.97;2.83;;;43.60;31.60;;;;;;4973089;28;20831;-68
2022/06/17 11:30:38;;;;;;;6.17;3.33;;;44.00;30.90;;;;;;4961200;28;20440;-67
2022/06/17 11:33:30;;;;;;;2.83;2.73;;;44.90;29.30;;;;;;4953557;28;20491;-68
2022/06/17 11:36:20;;;;;;;3.60;3.40;;;41.80;29.50;;;;;;4953692;29;20487;-67
2022/06/17 11:38:46;;;;;;;3.47;3.13;;;40.50;30.80;;;;;;4958431;28;20440;-67
2022/06/17 11:41:24;;;;;;;3.33;3.13;;;41.50;30.90;;;;;;4968272;28;20464;-68
2022/06/17 11:43:52;;;;;;;3.20;2.83;;;43.20;30.60;;;;;;4964270;28;20451;-70
2022/06/17 11:46:21;;;;;;;3.43;3.13;;;43.70;29.80;;;;;;4957886;28;20428;-68
2022/06/17 11:48:50;;;;;;;6.53;3.40;;;44.30;29.50;;;;;;4953199;28;20417;-69
2022/06/17 11:51:35;;;;;;;4.30;3.47;;;44.90;29.10;;;;;;4953282;28;20499;-69
2022/06/17 11:54:17;;;;;;;3.13;2.83;;;43.70;28.70;;;;;;4953211;28;20448;-69
2022/06/17 11:56:43;;;;;;;3.53;3.33;;;43.50;28.40;;;;;;4956004;28;20767;-70
2022/06/17 11:59:22;;;;;;;2.90;2.70;;;44.10;28.40;;;;;;4956799;28;20417;-71
2022/06/17 12:01:53;;;;;;;3.40;2.77;;;44.80;28.30;;;;;;4956873;28;20483;-69
2022/06/17 12:04:42;;;;;;;3.10;2.90;;;45.00;27.90;;;;;;4956814;28;20898;-68
2022/06/17 12:07:31;;;;;;;3.70;3.30;;;45.80;27.60;;;;;;4956803;28;20409;-67
2022/06/17 12:10:15;;;;;;;3.40;3.10;;;46.50;26.80;;;;;;4956654;29;20421;-69
2022/06/17 12:12:42;;;;;;;3.27;3.07;;;46.00;27.10;;;;;;4956992;28;20416;-69
2022/06/17 12:15:26;;;;;;;3.17;2.97;;;45.70;26.40;;;;;;4956689;28;20424;-68
2022/06/17 12:17:53;;;;;;;2.80;2.60;;;44.90;26.20;;;;;;4957075;28;20418;-68
2022/06/17 12:20:21;;;;;;;3.13;2.83;;;44.50;26.60;;;;;;4956213;28;20428;-68
2022/06/17 12:23:05;;;;;;;3.47;3.27;;;45.30;26.60;;;;;;4956320;28;20512;-69
2022/06/17 12:25:43;;;;;;;5.73;5.43;;;47.10;24.60;;;;;;4971974;28;20902;-68
2022/06/17 12:28:45;;;;;;;3.60;3.30;;;47.20;24.40;;;;;;4978218;28;20438;-68
2022/06/17 12:31:36;;;;;;;3.53;3.33;;;47.10;24.10;;;;;;4990638;28;20916;-68
2022/06/17 12:34:28;;;;;;;3.50;3.23;;;47.50;23.80;;;;;;4952579;28;20660;-68
2022/06/17 12:36:58;;;;;;;2.70;2.37;;;47.50;23.80;;;;;;4965929;28;20455;-68
2022/06/17 12:39:41;;;;;;;4.27;3.83;;;47.60;23.70;;;;;;4972024;28;20474;-68
2022/06/17 12:42:28;;;;;;;3.00;2.87;;;47.50;23.20;;;;;;4971073;28;20411;-68
2022/06/17 12:45:03;;;;;;;3.47;3.27;;;47.50;23.70;;;;;;4972111;28;20466;-67
2022/06/17 12:47:51;;;;;;;3.40;3.10;;;46.80;23.40;;;;;;4972479;28;20438;-68
2022/06/17 12:54:02;;;;;;;2.83;2.73;;;46.10;23.90;;;;;;4877687;29;20551;-68
2022/06/17 12:56:35;;;;;;;3.30;3.10;;;47.00;23.10;;;;;;4878023;29;20431;-69
2022/06/17 12:59:15;;;;;;;3.17;2.77;;;46.50;23.30;;;;;;4934863;29;20520;-68
2022/06/17 13:01:57;;;;;;;3.47;3.27;;;46.80;22.80;;;;;;4955739;29;20427;-68
2022/06/17 13:04:57;;;;;;;3.53;3.33;;;47.90;22.70;;;;;;4955690;28;20488;-68
2022/06/17 13:07:39;;;;;;;2.43;2.23;;;48.50;22.50;;;;;;4955026;28;20790;-68
2022/06/17 13:10:39;;;;;;;3.43;3.13;;;48.80;21.90;;;;;;4955518;28;20456;-71
2022/06/17 13:13:27;;;;;;;2.70;2.50;;;47.20;21.80;;;;;;4955639;28;20782;-70
2022/06/17 13:16:14;;;;;;;2.97;2.77;;;46.60;22.50;;;;;;4955905;29;20412;-71
2022/06/17 13:18:53;;;;;;;2.40;2.27;;;46.60;22.20;;;;;;4955266;29;20540;-69
2022/06/17 13:21:49;;;;;;;2.40;2.30;;;45.40;22.10;;;;;;4955523;28;20427;-68
2022/06/17 13:24:28;;;;;;;2.93;2.83;;;46.00;22.30;;;;;;4949157;28;20555;-67
2022/06/17 13:27:12;;;;;;;2.40;2.30;;;44.80;22.50;;;;;;4955484;29;20922;-69
2022/06/17 13:30:03;;;;;;;2.43;2.20;;;43.90;22.50;;;;;;4955271;29;20954;-70